Terminal Aerodrome Forecast
Issued by NWS Cleveland, OH

Home | Current Version | Previous Version | Text Only | Print | Product List | Glossary Off
Versions: 1 2 3 4 5 6 7 8 9 10 11 12 13 14 15 16 17 18 19 20 21 22 23 24

000
FTUS41 KCLE 240800 AAB
TAFMFD
TAF AMD
KMFD 240827Z 2408/2506 14010KT 6SM BR OVC003
     FM241600 16015G25KT P6SM OVC006
     FM242000 18020G35KT P6SM -SHRA OVC012
     FM242200 21025G40KT P6SM OVC015=

USA.gov is the U.S. government's official web portal to all federal, state and local government web resources and services.